Time;durP1;ratioP1;P1;durP2;ratioP2;P2;SDS_P1;SDS_P2;PMS_P1;PMS_P2;Temp;Humidity;BMP_temperature;BMP_pressure;BME280_temperature;BME280_humidity;BME280_pressure;Samples;Min_cycle;Max_cycle;Signal;HPM_P1;HPM_P2
2023/09/06 00:00:59;;;;;;;;;;;;;;;;;;2069472;28;19940;-73
2023/09/06 00:02:19;;;;;;;;;;;;;;;;;;2066658;28;19924;-73
2023/09/06 00:03:40;;;;;;;;;;;;;;;;;;2062194;28;19918;-73
2023/09/06 00:05:01;;;;;;;;;;;;;;;;;;2065458;28;20555;-72
2023/09/06 00:06:22;;;;;;;;;;;;;;;;;;2068891;28;19969;-73
2023/09/06 00:07:44;;;;;;;;;;;;;;;;;;2066274;28;19922;-71
2023/09/06 00:09:05;;;;;;;;;;;;;;;;;;2062904;28;19973;-73
2023/09/06 00:10:26;;;;;;;;;;;;;;;;;;2070136;28;19913;-73
2023/09/06 00:11:46;;;;;;;;;;;;;;;;;;2061578;28;20448;-73
2023/09/06 00:13:07;;;;;;;;;;;;;;;;;;2067698;28;19917;-72
2023/09/06 00:14:29;;;;;;;;;;;;;;;;;;2063154;28;19921;-72
2023/09/06 00:15:50;;;;;;;;;;;;;;;;;;2065845;28;19921;-73
2023/09/06 00:17:10;;;;;;;;;;;;;;;;;;2062459;28;19917;-73
2023/09/06 00:18:31;;;;;;;;;;;;;;;;;;2068523;28;19976;-72
2023/09/06 00:19:52;;;;;;;;;;;;;;;;;;2063895;28;19988;-72
2023/09/06 00:21:13;;;;;;;;;;;;;;;;;;2070192;28;19921;-72
2023/09/06 00:22:34;;;;;;;;;;;;;;;;;;2062525;28;19914;-73
2023/09/06 00:23:55;;;;;;;;;;;;;;;;;;2060103;28;19914;-72
2023/09/06 00:25:16;;;;;;;;;;;;;;;;;;2062866;28;20420;-72
2023/09/06 00:26:37;;;;;;;;;;;;;;;;;;2070943;28;19960;-72
2023/09/06 00:27:57;;;;;;;;;;;;;;;;;;2061306;28;19913;-72
2023/09/06 00:29:18;;;;;;;;;;;;;;;;;;2069131;28;19993;-72
2023/09/06 00:30:39;;;;;;;;;;;;;;;;;;2068276;28;19914;-73
2023/09/06 00:32:00;;;;;;;;;;;;;;;;;;2061411;28;19924;-72
2023/09/06 00:33:21;;;;;;;;;;;;;;;;;;2068420;28;19925;-72
2023/09/06 00:34:41;;;;;;;;;;;;;;;;;;2064125;28;19913;-72
2023/09/06 00:36:02;;;;;;;;;;;;;;;;;;2068384;28;19930;-72
2023/09/06 00:37:23;;;;;;;;;;;;;;;;;;2069855;28;19991;-73
2023/09/06 00:38:44;;;;;;;;;;;;;;;;;;2067828;28;19925;-72
2023/09/06 00:40:17;;;;;;;;;;;;;;;;;;2070624;28;20365;-73
2023/09/06 00:41:40;;;;;;;;;;;;;;;;;;2071401;28;20020;-72
2023/09/06 00:43:00;;;;;;;;;;;;;;;;;;2073587;28;19940;-72
2023/09/06 00:44:21;;;;;;;;;;;;;;;;;;2070174;28;19918;-73
2023/09/06 00:45:44;;;;;;;;;;;;;;;;;;2072869;28;19913;-73
2023/09/06 00:47:04;;;;;;;;;;;;;;;;;;2069339;28;20369;-72
2023/09/06 00:48:26;;;;;;;;;;;;;;;;;;2070109;28;19938;-72
2023/09/06 00:49:46;;;;;;;;;;;;;;;;;;2071186;28;19913;-73
2023/09/06 00:51:07;;;;;;;;;;;;;;;;;;2073263;28;19920;-73
2023/09/06 00:52:28;;;;;;;;;;;;;;;;;;2070431;28;19917;-73
2023/09/06 00:53:49;;;;;;;;;;;;;;;;;;2074642;28;20034;-73
2023/09/06 00:55:10;;;;;;;;;;;;;;;;;;2074063;28;19913;-73
2023/09/06 00:56:31;;;;;;;;;;;;;;;;;;2064492;28;19972;-73
2023/09/06 00:57:52;;;;;;;;;;;;;;;;;;2068743;28;19921;-74
2023/09/06 00:59:12;;;;;;;;;;;;;;;;;;2069021;28;19917;-72
2023/09/06 01:00:35;;;;;;;;;;;;;;;;;;2070921;28;19972;-73
2023/09/06 01:01:55;;;;;;;;;;;;;;;;;;2070501;28;19917;-73
2023/09/06 01:03:16;;;;;;;;;;;;;;;;;;2071208;28;20310;-73
2023/09/06 01:04:37;;;;;;;;;;;;;;;;;;2070512;28;20277;-73
2023/09/06 01:05:58;;;;;;;;;;;;;;;;;;2068124;28;20253;-73
2023/09/06 01:07:18;;;;;;;;;;;;;;;;;;2071495;28;19914;-73
2023/09/06 01:08:39;;;;;;;;;;;;;;;;;;2061109;28;19938;-73
2023/09/06 01:10:00;;;;;;;;;;;;;;;;;;2066790;28;20393;-72
2023/09/06 01:11:21;;;;;;;;;;;;;;;;;;2061886;28;19928;-73
2023/09/06 01:12:42;;;;;;;;;;;;;;;;;;2068583;28;20257;-72
2023/09/06 01:14:03;;;;;;;;;;;;;;;;;;2071003;28;19979;-73
2023/09/06 01:15:24;;;;;;;;;;;;;;;;;;2071672;28;19913;-73
2023/09/06 01:16:45;;;;;;;;;;;;;;;;;;2072138;28;20293;-73
2023/09/06 01:18:06;;;;;;;;;;;;;;;;;;2060606;28;19918;-72
2023/09/06 01:19:27;;;;;;;;;;;;;;;;;;2066559;28;19929;-72
2023/09/06 01:20:51;;;;;;;;;;;;;;;;;;2070872;28;19932;-72
2023/09/06 01:22:12;;;;;;;;;;;;;;;;;;2066887;28;20376;-73
2023/09/06 01:23:33;;;;;;;;;;;;;;;;;;2067075;28;19972;-73
2023/09/06 01:24:54;;;;;;;;;;;;;;;;;;2072329;28;19924;-73
2023/09/06 01:26:15;;;;;;;;;;;;;;;;;;2073436;28;19913;-73
2023/09/06 01:27:35;;;;;;;;;;;;;;;;;;2070028;28;20011;-73
2023/09/06 01:28:56;;;;;;;;;;;;;;;;;;2070939;28;19921;-73
2023/09/06 01:30:18;;;;;;;;;;;;;;;;;;2061411;28;19973;-73
2023/09/06 01:31:39;;;;;;;;;;;;;;;;;;2058776;28;19914;-73
2023/09/06 01:32:59;;;;;;;;;;;;;;;;;;2066052;28;20267;-73
2023/09/06 01:34:20;;;;;;;;;;;;;;;;;;2068401;28;19914;-73
2023/09/06 01:35:41;;;;;;;;;;;;;;;;;;2059618;28;19917;-73
2023/09/06 01:37:01;;;;;;;;;;;;;;;;;;2055999;28;19949;-73
2023/09/06 01:38:22;;;;;;;;;;;;;;;;;;2057795;28;19926;-73
2023/09/06 01:39:43;;;;;;;;;;;;;;;;;;2053994;28;20036;-73
2023/09/06 01:41:04;;;;;;;;;;;;;;;;;;2059476;28;19926;-73
2023/09/06 01:42:24;;;;;;;;;;;;;;;;;;2062213;28;20419;-73
2023/09/06 01:43:45;;;;;;;;;;;;;;;;;;2059901;28;19922;-73
2023/09/06 01:45:06;;;;;;;;;;;;;;;;;;2063361;28;19988;-72
2023/09/06 01:46:27;;;;;;;;;;;;;;;;;;2065253;28;19967;-73
2023/09/06 01:47:48;;;;;;;;;;;;;;;;;;2058527;28;19913;-73
2023/09/06 01:49:08;;;;;;;;;;;;;;;;;;2051146;28;19922;-73
2023/09/06 01:50:29;;;;;;;;;;;;;;;;;;2053027;28;19926;-72
2023/09/06 01:51:50;;;;;;;;;;;;;;;;;;2059187;28;20337;-73
2023/09/06 01:53:13;;;;;;;;;;;;;;;;;;2063468;28;19918;-73
2023/09/06 01:54:34;;;;;;;;;;;;;;;;;;2062516;28;20365;-73
2023/09/06 01:55:54;;;;;;;;;;;;;;;;;;2061918;28;19960;-73
2023/09/06 01:57:15;;;;;;;;;;;;;;;;;;2053189;28;19914;-73
2023/09/06 01:58:37;;;;;;;;;;;;;;;;;;2052779;28;19929;-73
2023/09/06 01:59:57;;;;;;;;;;;;;;;;;;2063118;28;19944;-73
2023/09/06 02:01:18;;;;;;;;;;;;;;;;;;2064358;28;19913;-73
2023/09/06 02:02:39;;;;;;;;;;;;;;;;;;2053992;28;19922;-73
2023/09/06 02:04:01;;;;;;;;;;;;;;;;;;2062356;28;19944;-72
2023/09/06 02:05:22;;;;;;;;;;;;;;;;;;2055521;28;20060;-73
2023/09/06 02:06:43;;;;;;;;;;;;;;;;;;2060670;28;20285;-73
2023/09/06 02:08:04;;;;;;;;;;;;;;;;;;2061721;28;19918;-73
2023/09/06 02:09:26;;;;;;;;;;;;;;;;;;2063570;28;20098;-72
2023/09/06 02:10:46;;;;;;;;;;;;;;;;;;2061871;28;19914;-73
2023/09/06 02:12:07;;;;;;;;;;;;;;;;;;2057869;28;20358;-73
2023/09/06 02:13:28;;;;;;;;;;;;;;;;;;2055663;28;19942;-73
2023/09/06 02:14:49;;;;;;;;;;;;;;;;;;2059004;28;20321;-73
2023/09/06 02:16:12;;;;;;;;;;;;;;;;;;2062046;28;20361;-72
2023/09/06 02:17:32;;;;;;;;;;;;;;;;;;2060730;28;19913;-73
2023/09/06 02:18:53;;;;;;;;;;;;;;;;;;2051643;28;19926;-73
2023/09/06 02:20:19;;;;;;;;;;;;;;;;;;2059143;28;20474;-72
2023/09/06 02:21:40;;;;;;;;;;;;;;;;;;2056781;28;19925;-72
2023/09/06 02:23:01;;;;;;;;;;;;;;;;;;2060069;28;19918;-72
2023/09/06 02:24:21;;;;;;;;;;;;;;;;;;2061146;28;19917;-72
2023/09/06 02:25:45;;;;;;;;;;;;;;;;;;2060487;28;19945;-72
2023/09/06 02:27:05;;;;;;;;;;;;;;;;;;2062467;28;20028;-71
2023/09/06 02:28:26;;;;;;;;;;;;;;;;;;2059374;28;19929;-72
2023/09/06 02:29:47;;;;;;;;;;;;;;;;;;2055042;28;20377;-74
2023/09/06 02:31:07;;;;;;;;;;;;;;;;;;2060007;28;19918;-72
2023/09/06 02:32:31;;;;;;;;;;;;;;;;;;2063464;28;19921;-71
2023/09/06 02:33:51;;;;;;;;;;;;;;;;;;2061553;28;20338;-73
2023/09/06 02:35:12;;;;;;;;;;;;;;;;;;2063034;28;19976;-73
2023/09/06 02:36:33;;;;;;;;;;;;;;;;;;2067997;28;20356;-73
2023/09/06 02:37:54;;;;;;;;;;;;;;;;;;2070318;28;19959;-72
2023/09/06 02:39:14;;;;;;;;;;;;;;;;;;2068763;28;20416;-73
2023/09/06 02:40:35;;;;;;;;;;;;;;;;;;2071555;28;20369;-74
2023/09/06 02:41:56;;;;;;;;;;;;;;;;;;2063319;28;19922;-73
2023/09/06 02:43:17;;;;;;;;;;;;;;;;;;2065433;28;19914;-73
2023/09/06 02:44:37;;;;;;;;;;;;;;;;;;2070598;28;19913;-73
2023/09/06 02:46:03;;;;;;;;;;;;;;;;;;2070764;28;19922;-73
2023/09/06 02:47:25;;;;;;;;;;;;;;;;;;2066239;28;21318;-74
2023/09/06 02:48:46;;;;;;;;;;;;;;;;;;2069162;28;19921;-73
2023/09/06 02:50:07;;;;;;;;;;;;;;;;;;2061122;28;20392;-73
2023/09/06 02:51:29;;;;;;;;;;;;;;;;;;2068252;28;19926;-73
2023/09/06 02:52:50;;;;;;;;;;;;;;;;;;2065064;28;19917;-73
2023/09/06 02:54:12;;;;;;;;;;;;;;;;;;2070920;28;19917;-73
2023/09/06 02:55:35;;;;;;;;;;;;;;;;;;2068098;28;19914;-73
2023/09/06 02:56:57;;;;;;;;;;;;;;;;;;2071003;28;20392;-73
2023/09/06 02:58:23;;;;;;;;;;;;;;;;;;2070313;28;20265;-73
2023/09/06 02:59:44;;;;;;;;;;;;;;;;;;2072967;28;19984;-73
2023/09/06 03:01:06;;;;;;;;;;;;;;;;;;2067276;28;19992;-73
2023/09/06 03:02:27;;;;;;;;;;;;;;;;;;2068893;28;19928;-73
2023/09/06 03:03:51;;;;;;;;;;;;;;;;;;2061650;28;20224;-73
2023/09/06 03:05:17;;;;;;;;;;;;;;;;;;2068621;28;19922;-73
2023/09/06 03:06:38;;;;;;;;;;;;;;;;;;2069118;28;19917;-73
2023/09/06 03:07:58;;;;;;;;;;;;;;;;;;2068511;28;19917;-74
2023/09/06 03:09:28;;;;;;;;;;;;;;;;;;2069900;28;20301;-72
2023/09/06 03:10:49;;;;;;;;;;;;;;;;;;2060826;28;19921;-74
2023/09/06 03:12:14;;;;;;;;;;;;;;;;;;2067727;28;19917;-73
2023/09/06 03:13:36;;;;;;;;;;;;;;;;;;2064194;28;19917;-73
2023/09/06 03:14:59;;;;;;;;;;;;;;;;;;2063003;28;19918;-73
2023/09/06 03:16:22;;;;;;;;;;;;;;;;;;2065548;28;19980;-73
2023/09/06 03:17:46;;;;;;;;;;;;;;;;;;2063771;28;19925;-73
2023/09/06 03:19:09;;;;;;;;;;;;;;;;;;2068212;28;19975;-73
2023/09/06 03:20:34;;;;;;;;;;;;;;;;;;2066746;28;19932;-73
2023/09/06 03:21:56;;;;;;;;;;;;;;;;;;2070208;28;19921;-73
2023/09/06 03:23:19;;;;;;;;;;;;;;;;;;2071508;28;19979;-73
2023/09/06 03:24:41;;;;;;;;;;;;;;;;;;2073156;28;19913;-73
2023/09/06 03:26:02;;;;;;;;;;;;;;;;;;2071414;28;19944;-73
2023/09/06 03:27:23;;;;;;;;;;;;;;;;;;2058449;28;19914;-73
2023/09/06 03:28:44;;;;;;;;;;;;;;;;;;2068582;28;20260;-73
2023/09/06 03:30:06;;;;;;;;;;;;;;;;;;2064175;28;19961;-73
2023/09/06 03:31:29;;;;;;;;;;;;;;;;;;2066438;28;19913;-73
2023/09/06 03:32:51;;;;;;;;;;;;;;;;;;2062489;28;20342;-73
2023/09/06 03:34:13;;;;;;;;;;;;;;;;;;2060823;28;19921;-73
2023/09/06 03:35:33;;;;;;;;;;;;;;;;;;2070669;28;19929;-73
2023/09/06 03:36:55;;;;;;;;;;;;;;;;;;2070017;28;20347;-73
2023/09/06 03:38:17;;;;;;;;;;;;;;;;;;2062769;28;19922;-73
2023/09/06 03:39:41;;;;;;;;;;;;;;;;;;2065433;28;19929;-73
2023/09/06 03:41:02;;;;;;;;;;;;;;;;;;2068886;28;19924;-73
2023/09/06 03:42:23;;;;;;;;;;;;;;;;;;2065586;28;19921;-73
2023/09/06 03:43:45;;;;;;;;;;;;;;;;;;2066687;28;20254;-73
2023/09/06 03:45:14;;;;;;;;;;;;;;;;;;2073743;28;20319;-73
2023/09/06 03:46:34;;;;;;;;;;;;;;;;;;2062625;28;19921;-73
2023/09/06 03:47:55;;;;;;;;;;;;;;;;;;2067600;28;20393;-73
2023/09/06 03:49:16;;;;;;;;;;;;;;;;;;2071594;28;19989;-73
2023/09/06 03:50:37;;;;;;;;;;;;;;;;;;2071872;28;19914;-73
2023/09/06 03:51:58;;;;;;;;;;;;;;;;;;2072303;28;19936;-73
2023/09/06 03:53:18;;;;;;;;;;;;;;;;;;2071715;28;19960;-72
2023/09/06 03:54:40;;;;;;;;;;;;;;;;;;2071535;28;19914;-72
2023/09/06 03:56:01;;;;;;;;;;;;;;;;;;2065069;28;20028;-73
2023/09/06 03:57:22;;;;;;;;;;;;;;;;;;2069828;28;19925;-73
2023/09/06 03:58:42;;;;;;;;;;;;;;;;;;2070647;28;20324;-73
2023/09/06 04:01:43;;;;;;;;;;;;;;;;;;2069872;28;19913;-71
2023/09/06 04:03:04;;;;;;;;;;;;;;;;;;2071635;28;19913;-73
2023/09/06 04:04:25;;;;;;;;;;;;;;;;;;2072079;28;19918;-73
2023/09/06 04:05:46;;;;;;;;;;;;;;;;;;2067399;28;19941;-72
2023/09/06 04:07:07;;;;;;;;;;;;;;;;;;2073925;28;19914;-73
2023/09/06 04:08:28;;;;;;;;;;;;;;;;;;2071663;28;19932;-72
2023/09/06 04:09:56;;;;;;;;;;;;;;;;;;2074645;28;19921;-72
2023/09/06 04:11:16;;;;;;;;;;;;;;;;;;2071618;28;19971;-72
2023/09/06 04:12:37;;;;;;;;;;;;;;;;;;2082169;28;19939;-72
2023/09/06 04:13:58;;;;;;;;;;;;;;;;;;2070484;28;19917;-72
2023/09/06 04:15:21;;;;;;;;;;;;;;;;;;2064984;28;20358;-72
2023/09/06 04:16:42;;;;;;;;;;;;;;;;;;2064665;28;19914;-72
2023/09/06 04:18:03;;;;;;;;;;;;;;;;;;2069764;28;19921;-72
2023/09/06 04:19:23;;;;;;;;;;;;;;;;;;2069900;28;20027;-73
2023/09/06 04:20:44;;;;;;;;;;;;;;;;;;2069788;28;20423;-74
2023/09/06 04:22:05;;;;;;;;;;;;;;;;;;2069093;28;19917;-72
2023/09/06 04:23:26;;;;;;;;;;;;;;;;;;2070597;28;19921;-73
2023/09/06 04:24:47;;;;;;;;;;;;;;;;;;2064952;28;20328;-72
2023/09/06 04:26:07;;;;;;;;;;;;;;;;;;2068791;28;19914;-72
2023/09/06 04:27:28;;;;;;;;;;;;;;;;;;2065625;28;20012;-72
2023/09/06 04:28:49;;;;;;;;;;;;;;;;;;2070333;28;20468;-72
2023/09/06 04:30:10;;;;;;;;;;;;;;;;;;2074405;28;19917;-72
2023/09/06 04:31:30;;;;;;;;;;;;;;;;;;2069374;28;19918;-73
2023/09/06 04:32:51;;;;;;;;;;;;;;;;;;2060915;28;19918;-74
2023/09/06 04:34:12;;;;;;;;;;;;;;;;;;2063038;28;19921;-74
2023/09/06 04:35:33;;;;;;;;;;;;;;;;;;2069417;28;20237;-72
2023/09/06 04:36:54;;;;;;;;;;;;;;;;;;2064411;28;19964;-73
2023/09/06 04:38:15;;;;;;;;;;;;;;;;;;2063517;28;19968;-73
2023/09/06 04:39:36;;;;;;;;;;;;;;;;;;2068206;28;20293;-73
2023/09/06 04:40:56;;;;;;;;;;;;;;;;;;2062974;28;19982;-73
2023/09/06 04:42:17;;;;;;;;;;;;;;;;;;2067120;28;19917;-74
2023/09/06 04:43:38;;;;;;;;;;;;;;;;;;2071485;28;19913;-72
2023/09/06 04:44:58;;;;;;;;;;;;;;;;;;2063418;28;20330;-72
2023/09/06 04:46:19;;;;;;;;;;;;;;;;;;2068604;28;19952;-75
2023/09/06 04:47:42;;;;;;;;;;;;;;;;;;2061905;28;19941;-73
2023/09/06 04:49:03;;;;;;;;;;;;;;;;;;2065914;28;19922;-75
2023/09/06 04:50:24;;;;;;;;;;;;;;;;;;2073637;28;19910;-72
2023/09/06 04:51:45;;;;;;;;;;;;;;;;;;2079751;28;19909;-72
2023/09/06 04:53:05;;;;;;;;;;;;;;;;;;2070644;28;19920;-72
2023/09/06 04:54:26;;;;;;;;;;;;;;;;;;2069388;28;19975;-72
2023/09/06 04:55:47;;;;;;;;;;;;;;;;;;2068345;28;19910;-72
2023/09/06 04:57:08;;;;;;;;;;;;;;;;;;2065533;28;19917;-74
2023/09/06 04:58:29;;;;;;;;;;;;;;;;;;2065514;28;19910;-72
2023/09/06 04:59:50;;;;;;;;;;;;;;;;;;2070090;28;20277;-72
2023/09/06 05:01:10;;;;;;;;;;;;;;;;;;2071869;28;19929;-70
2023/09/06 05:02:31;;;;;;;;;;;;;;;;;;2068031;28;19921;-73
2023/09/06 05:03:52;;;;;;;;;;;;;;;;;;2069557;28;19917;-72
2023/09/06 05:05:14;;;;;;;;;;;;;;;;;;2070561;28;19918;-72
2023/09/06 05:06:36;;;;;;;;;;;;;;;;;;2069998;28;19913;-71
2023/09/06 05:07:57;;;;;;;;;;;;;;;;;;2062486;28;20293;-72
2023/09/06 05:09:19;;;;;;;;;;;;;;;;;;2065281;28;19917;-72
2023/09/06 05:10:40;;;;;;;;;;;;;;;;;;2068896;28;19913;-71
2023/09/06 05:12:00;;;;;;;;;;;;;;;;;;2062069;28;19925;-71
2023/09/06 05:13:22;;;;;;;;;;;;;;;;;;2067774;28;19945;-71
2023/09/06 05:14:43;;;;;;;;;;;;;;;;;;2070367;28;19921;-72
2023/09/06 05:16:05;;;;;;;;;;;;;;;;;;2061802;28;20311;-71
2023/09/06 05:17:26;;;;;;;;;;;;;;;;;;2060337;28;20394;-72
2023/09/06 05:18:46;;;;;;;;;;;;;;;;;;2068435;28;19913;-72
2023/09/06 05:20:07;;;;;;;;;;;;;;;;;;2065858;28;19952;-72
2023/09/06 05:21:28;;;;;;;;;;;;;;;;;;2062338;28;20215;-71
2023/09/06 05:22:48;;;;;;;;;;;;;;;;;;2070389;28;19913;-71
2023/09/06 05:24:09;;;;;;;;;;;;;;;;;;2060753;28;19973;-72
2023/09/06 05:25:30;;;;;;;;;;;;;;;;;;2067838;28;19971;-72
2023/09/06 05:26:50;;;;;;;;;;;;;;;;;;2067931;28;19964;-71
2023/09/06 05:28:12;;;;;;;;;;;;;;;;;;2074558;28;20328;-71
2023/09/06 05:29:33;;;;;;;;;;;;;;;;;;2071614;28;19968;-71
2023/09/06 05:30:53;;;;;;;;;;;;;;;;;;2076057;28;19909;-72
2023/09/06 05:32:18;;;;;;;;;;;;;;;;;;2059316;28;19910;-77
2023/09/06 05:33:39;;;;;;;;;;;;;;;;;;2071709;28;19913;-77
2023/09/06 05:35:00;;;;;;;;;;;;;;;;;;2071294;28;19956;-75
2023/09/06 05:36:20;;;;;;;;;;;;;;;;;;2070674;28;20361;-75
2023/09/06 05:37:41;;;;;;;;;;;;;;;;;;2073506;28;19920;-77
2023/09/06 05:39:06;;;;;;;;;;;;;;;;;;2071908;28;19913;-76
2023/09/06 05:40:27;;;;;;;;;;;;;;;;;;2072070;28;19960;-76
2023/09/06 05:41:48;;;;;;;;;;;;;;;;;;2071791;28;19909;-76
2023/09/06 05:43:08;;;;;;;;;;;;;;;;;;2065810;28;19910;-76
2023/09/06 05:44:29;;;;;;;;;;;;;;;;;;2065000;28;19910;-76
2023/09/06 05:45:50;;;;;;;;;;;;;;;;;;2064387;28;19918;-76
2023/09/06 05:47:10;;;;;;;;;;;;;;;;;;2057239;28;20313;-76
2023/09/06 05:48:31;;;;;;;;;;;;;;;;;;2071483;28;19916;-76
2023/09/06 05:49:55;;;;;;;;;;;;;;;;;;2068586;28;20401;-76
2023/09/06 05:51:16;;;;;;;;;;;;;;;;;;2067142;28;19909;-75
2023/09/06 05:52:38;;;;;;;;;;;;;;;;;;2064739;28;20001;-76
2023/09/06 05:54:00;;;;;;;;;;;;;;;;;;2071158;28;19910;-75
2023/09/06 05:55:21;;;;;;;;;;;;;;;;;;2069473;28;19910;-76
2023/09/06 05:56:41;;;;;;;;;;;;;;;;;;2075357;28;19913;-76
2023/09/06 05:58:02;;;;;;;;;;;;;;;;;;2081068;28;19914;-76
2023/09/06 05:59:23;;;;;;;;;;;;;;;;;;2078835;28;19944;-76
2023/09/06 06:00:43;;;;;;;;;;;;;;;;;;2066470;28;20416;-76
2023/09/06 06:02:04;;;;;;;;;;;;;;;;;;2077317;28;19909;-76
2023/09/06 06:03:25;;;;;;;;;;;;;;;;;;2065313;28;19920;-75
2023/09/06 06:04:45;;;;;;;;;;;;;;;;;;2069984;28;20300;-76
2023/09/06 06:06:10;;;;;;;;;;;;;;;;;;2071445;28;19933;-75
2023/09/06 06:07:31;;;;;;;;;;;;;;;;;;2073519;28;19961;-76
2023/09/06 06:08:53;;;;;;;;;;;;;;;;;;2077741;28;19996;-76
2023/09/06 06:10:13;;;;;;;;;;;;;;;;;;2063508;28;19933;-76
2023/09/06 06:11:34;;;;;;;;;;;;;;;;;;2063722;28;19910;-75
2023/09/06 06:12:55;;;;;;;;;;;;;;;;;;2071236;28;20312;-77
2023/09/06 06:14:16;;;;;;;;;;;;;;;;;;2051383;28;19915;-76
2023/09/06 06:15:37;;;;;;;;;;;;;;;;;;2063397;28;19988;-76
2023/09/06 06:16:57;;;;;;;;;;;;;;;;;;2079216;28;19959;-76
2023/09/06 06:18:18;;;;;;;;;;;;;;;;;;2074810;28;19909;-76
2023/09/06 06:19:39;;;;;;;;;;;;;;;;;;2061409;28;19946;-76
2023/09/06 06:20:59;;;;;;;;;;;;;;;;;;2059285;28;19977;-76
2023/09/06 06:22:20;;;;;;;;;;;;;;;;;;2071348;28;19910;-76
2023/09/06 06:23:46;;;;;;;;;;;;;;;;;;2073384;28;19910;-76
2023/09/06 06:25:07;;;;;;;;;;;;;;;;;;2062201;28;19992;-76
2023/09/06 06:26:27;;;;;;;;;;;;;;;;;;2057230;28;19911;-76
2023/09/06 06:27:51;;;;;;;;;;;;;;;;;;2075038;28;19909;-76
2023/09/06 06:29:12;;;;;;;;;;;;;;;;;;2066708;28;20313;-76
2023/09/06 06:30:33;;;;;;;;;;;;;;;;;;2070815;28;19963;-76
2023/09/06 06:31:53;;;;;;;;;;;;;;;;;;2078307;28;19910;-76
2023/09/06 06:33:14;;;;;;;;;;;;;;;;;;2081282;28;20228;-76
2023/09/06 06:34:38;;;;;;;;;;;;;;;;;;2068520;28;19932;-75
2023/09/06 06:35:59;;;;;;;;;;;;;;;;;;2069932;28;19921;-75
2023/09/06 06:37:20;;;;;;;;;;;;;;;;;;2065130;28;19933;-75
2023/09/06 06:38:41;;;;;;;;;;;;;;;;;;2065489;28;19910;-76
2023/09/06 06:40:02;;;;;;;;;;;;;;;;;;2073085;28;19921;-76
2023/09/06 06:41:23;;;;;;;;;;;;;;;;;;2069632;28;19916;-72
2023/09/06 06:42:43;;;;;;;;;;;;;;;;;;2072607;28;19932;-72
2023/09/06 06:44:04;;;;;;;;;;;;;;;;;;2072125;28;19916;-73
2023/09/06 06:45:25;;;;;;;;;;;;;;;;;;2072006;28;19921;-71
2023/09/06 06:46:46;;;;;;;;;;;;;;;;;;2072603;28;19914;-72
2023/09/06 06:48:07;;;;;;;;;;;;;;;;;;2072225;28;19917;-72
2023/09/06 06:49:27;;;;;;;;;;;;;;;;;;2072520;28;19934;-72
2023/09/06 06:50:48;;;;;;;;;;;;;;;;;;2061993;28;20325;-72
2023/09/06 06:52:09;;;;;;;;;;;;;;;;;;2055761;28;19911;-72
2023/09/06 06:53:29;;;;;;;;;;;;;;;;;;2067078;28;19917;-72
2023/09/06 06:54:50;;;;;;;;;;;;;;;;;;2073379;28;20357;-72
2023/09/06 06:56:11;;;;;;;;;;;;;;;;;;2065180;28;19910;-72
2023/09/06 06:57:33;;;;;;;;;;;;;;;;;;2071390;28;19918;-72
2023/09/06 06:58:54;;;;;;;;;;;;;;;;;;2063973;28;19914;-72
2023/09/06 07:00:17;;;;;;;;;;;;;;;;;;2066134;28;20009;-72
2023/09/06 07:01:37;;;;;;;;;;;;;;;;;;2069395;28;19913;-72
2023/09/06 07:02:58;;;;;;;;;;;;;;;;;;2070837;28;19932;-72
2023/09/06 07:04:19;;;;;;;;;;;;;;;;;;2072865;28;19913;-72
2023/09/06 07:05:40;;;;;;;;;;;;;;;;;;2071270;28;20277;-71
2023/09/06 07:07:00;;;;;;;;;;;;;;;;;;2071475;28;19913;-72
2023/09/06 07:08:23;;;;;;;;;;;;;;;;;;2078380;28;19920;-72
2023/09/06 07:09:44;;;;;;;;;;;;;;;;;;2075849;28;20408;-72
2023/09/06 07:11:06;;;;;;;;;;;;;;;;;;2075135;28;19936;-72
2023/09/06 07:12:27;;;;;;;;;;;;;;;;;;2066290;28;20378;-72
2023/09/06 07:13:48;;;;;;;;;;;;;;;;;;2071906;28;19979;-72
2023/09/06 07:15:09;;;;;;;;;;;;;;;;;;2076520;28;19916;-72
2023/09/06 07:16:31;;;;;;;;;;;;;;;;;;2076301;28;19909;-72
2023/09/06 07:17:52;;;;;;;;;;;;;;;;;;2082016;28;19913;-72
2023/09/06 07:19:12;;;;;;;;;;;;;;;;;;2080955;28;20391;-73
2023/09/06 07:20:33;;;;;;;;;;;;;;;;;;2071263;28;19925;-72
2023/09/06 07:21:54;;;;;;;;;;;;;;;;;;2069593;28;19913;-72
2023/09/06 07:23:15;;;;;;;;;;;;;;;;;;2066153;28;20280;-73
2023/09/06 07:24:35;;;;;;;;;;;;;;;;;;2065736;28;19910;-72
2023/09/06 07:25:56;;;;;;;;;;;;;;;;;;2056526;28;19918;-72
2023/09/06 07:27:17;;;;;;;;;;;;;;;;;;2050516;28;19911;-72
2023/09/06 07:28:38;;;;;;;;;;;;;;;;;;2063240;28;19910;-71
2023/09/06 07:29:59;;;;;;;;;;;;;;;;;;2070211;28;19917;-71
2023/09/06 07:31:20;;;;;;;;;;;;;;;;;;2072164;28;20356;-71
2023/09/06 07:32:41;;;;;;;;;;;;;;;;;;2073551;28;20345;-71
2023/09/06 07:34:03;;;;;;;;;;;;;;;;;;2067872;28;19918;-72
2023/09/06 07:35:24;;;;;;;;;;;;;;;;;;2073645;28;19922;-72
2023/09/06 07:36:45;;;;;;;;;;;;;;;;;;2079953;28;19921;-72
2023/09/06 07:38:05;;;;;;;;;;;;;;;;;;2081779;28;19920;-72
2023/09/06 07:39:26;;;;;;;;;;;;;;;;;;2078837;28;19909;-72
2023/09/06 07:40:47;;;;;;;;;;;;;;;;;;2072795;28;19913;-72
2023/09/06 07:42:07;;;;;;;;;;;;;;;;;;2081225;28;19913;-72
2023/09/06 07:43:28;;;;;;;;;;;;;;;;;;2076918;28;20258;-72
2023/09/06 07:44:49;;;;;;;;;;;;;;;;;;2069839;28;19914;-72
2023/09/06 07:46:10;;;;;;;;;;;;;;;;;;2072720;28;19921;-74
2023/09/06 07:47:30;;;;;;;;;;;;;;;;;;2065661;28;19936;-71
2023/09/06 07:48:51;;;;;;;;;;;;;;;;;;2068589;28;19909;-73
2023/09/06 07:50:12;;;;;;;;;;;;;;;;;;2068269;28;19984;-72
2023/09/06 07:51:32;;;;;;;;;;;;;;;;;;2079664;28;20288;-74
2023/09/06 07:52:53;;;;;;;;;;;;;;;;;;2081120;28;20001;-75
2023/09/06 07:54:14;;;;;;;;;;;;;;;;;;2065949;28;19968;-75
2023/09/06 07:55:35;;;;;;;;;;;;;;;;;;2072780;28;19910;-75
2023/09/06 07:56:55;;;;;;;;;;;;;;;;;;2081368;28;20368;-75
2023/09/06 07:58:16;;;;;;;;;;;;;;;;;;2081853;28;19910;-75
2023/09/06 07:59:37;;;;;;;;;;;;;;;;;;2072068;28;19932;-75
2023/09/06 08:00:57;;;;;;;;;;;;;;;;;;2073061;28;19914;-75
2023/09/06 08:02:18;;;;;;;;;;;;;;;;;;2066223;28;19929;-75
2023/09/06 08:03:39;;;;;;;;;;;;;;;;;;2065730;28;19945;-74
2023/09/06 08:04:59;;;;;;;;;;;;;;;;;;2071474;28;19910;-74
2023/09/06 08:06:20;;;;;;;;;;;;;;;;;;2075160;28;19913;-74
2023/09/06 08:07:41;;;;;;;;;;;;;;;;;;2081247;28;19909;-75
2023/09/06 08:09:02;;;;;;;;;;;;;;;;;;2081333;28;19914;-75
2023/09/06 08:10:23;;;;;;;;;;;;;;;;;;2066259;28;19925;-75
2023/09/06 08:11:44;;;;;;;;;;;;;;;;;;2067502;28;19933;-75
2023/09/06 08:13:04;;;;;;;;;;;;;;;;;;2063763;28;20373;-75
2023/09/06 08:14:25;;;;;;;;;;;;;;;;;;2068884;28;19913;-75
2023/09/06 08:15:46;;;;;;;;;;;;;;;;;;2064517;28;19910;-74
2023/09/06 08:17:08;;;;;;;;;;;;;;;;;;2056894;28;20336;-74
2023/09/06 08:18:29;;;;;;;;;;;;;;;;;;2065553;28;19913;-75
2023/09/06 08:19:49;;;;;;;;;;;;;;;;;;2067962;28;20388;-75
2023/09/06 08:21:10;;;;;;;;;;;;;;;;;;2073761;28;19909;-74
2023/09/06 08:22:32;;;;;;;;;;;;;;;;;;2081799;28;19932;-75
2023/09/06 08:23:52;;;;;;;;;;;;;;;;;;2080557;28;19921;-74
2023/09/06 08:25:13;;;;;;;;;;;;;;;;;;2067137;28;19909;-74
2023/09/06 08:26:34;;;;;;;;;;;;;;;;;;2070187;28;19921;-74
2023/09/06 08:27:55;;;;;;;;;;;;;;;;;;2065893;28;20329;-74
2023/09/06 08:29:15;;;;;;;;;;;;;;;;;;2070411;28;19913;-74
2023/09/06 08:30:36;;;;;;;;;;;;;;;;;;2069694;28;19980;-75
2023/09/06 08:31:57;;;;;;;;;;;;;;;;;;2071752;28;19909;-74
2023/09/06 08:33:17;;;;;;;;;;;;;;;;;;2073122;28;19985;-75
2023/09/06 08:34:38;;;;;;;;;;;;;;;;;;2073000;28;19920;-75
2023/09/06 08:35:59;;;;;;;;;;;;;;;;;;2066951;28;19968;-76
2023/09/06 08:37:19;;;;;;;;;;;;;;;;;;2081447;28;19909;-74
2023/09/06 08:38:40;;;;;;;;;;;;;;;;;;2081142;28;19910;-75
2023/09/06 08:40:01;;;;;;;;;;;;;;;;;;2073823;28;19921;-74
2023/09/06 08:41:21;;;;;;;;;;;;;;;;;;2072566;28;19920;-75
2023/09/06 08:42:42;;;;;;;;;;;;;;;;;;2081477;28;19913;-76
2023/09/06 08:44:03;;;;;;;;;;;;;;;;;;2071930;28;19913;-73
2023/09/06 08:45:24;;;;;;;;;;;;;;;;;;2072965;28;20596;-75
2023/09/06 08:46:44;;;;;;;;;;;;;;;;;;2078159;28;19925;-75
2023/09/06 08:48:05;;;;;;;;;;;;;;;;;;2080566;28;20288;-75
2023/09/06 08:49:26;;;;;;;;;;;;;;;;;;2073720;28;19909;-75
2023/09/06 08:50:47;;;;;;;;;;;;;;;;;;2065321;28;19918;-75
2023/09/06 08:52:07;;;;;;;;;;;;;;;;;;2078012;28;19942;-75
2023/09/06 08:53:28;;;;;;;;;;;;;;;;;;2081125;28;19916;-75
2023/09/06 08:54:49;;;;;;;;;;;;;;;;;;2074286;28;19910;-75
2023/09/06 08:56:10;;;;;;;;;;;;;;;;;;2069087;28;19914;-75
2023/09/06 08:57:30;;;;;;;;;;;;;;;;;;2066338;28;20420;-74
2023/09/06 08:58:52;;;;;;;;;;;;;;;;;;2070484;28;19925;-74
2023/09/06 09:00:14;;;;;;;;;;;;;;;;;;2071949;28;20341;-74
2023/09/06 09:01:34;;;;;;;;;;;;;;;;;;2073107;28;19917;-72
2023/09/06 09:02:55;;;;;;;;;;;;;;;;;;2074325;28;19916;-73
2023/09/06 09:04:16;;;;;;;;;;;;;;;;;;2073134;28;19910;-73
2023/09/06 09:05:37;;;;;;;;;;;;;;;;;;2064688;28;19914;-72
2023/09/06 09:07:00;;;;;;;;;;;;;;;;;;2070166;28;19910;-72
2023/09/06 09:08:21;;;;;;;;;;;;;;;;;;2073571;28;19909;-73
2023/09/06 09:09:42;;;;;;;;;;;;;;;;;;2073059;28;19972;-73
2023/09/06 09:11:02;;;;;;;;;;;;;;;;;;2070186;28;19925;-73
2023/09/06 09:12:24;;;;;;;;;;;;;;;;;;2065940;28;19910;-73
2023/09/06 09:13:45;;;;;;;;;;;;;;;;;;2059183;28;19918;-73
2023/09/06 09:15:06;;;;;;;;;;;;;;;;;;2063175;28;19914;-74
2023/09/06 09:16:28;;;;;;;;;;;;;;;;;;2056575;28;19914;-73